Time;durP1;ratioP1;P1;durP2;ratioP2;P2;SDS_P1;SDS_P2;PMS_P1;PMS_P2;Temp;Humidity;BMP_temperature;BMP_pressure;BME280_temperature;BME280_humidity;BME280_pressure;Samples;Min_cycle;Max_cycle;Signal;HPM_P1;HPM_P2
2022/07/21 00:01:10;;;;;;;7.50;6.77;;;;;;;23.60;100.00;100382.13;5098480;28;21009;-48
2022/07/21 00:03:37;;;;;;;7.37;6.73;;;;;;;23.50;100.00;100388.38;5098694;28;20544;-48
2022/07/21 00:06:04;;;;;;;6.87;6.37;;;;;;;23.57;100.00;100385.09;5099378;28;20449;-49
2022/07/21 00:08:31;;;;;;;7.20;6.50;;;;;;;23.47;100.00;100386.78;5101136;28;20461;-48
2022/07/21 00:10:57;;;;;;;9.03;6.17;;;;;;;23.35;100.00;100377.78;5098508;28;20910;-48
2022/07/21 00:13:24;;;;;;;10.17;7.30;;;;;;;23.33;100.00;100374.31;5098836;28;20799;-47
2022/07/21 00:15:51;;;;;;;8.43;7.60;;;;;;;23.53;100.00;100372.69;5098632;28;20445;-48
2022/07/21 00:18:18;;;;;;;8.50;7.00;;;;;;;23.50;100.00;100385.66;5098548;28;20512;-48
2022/07/21 00:20:45;;;;;;;6.57;6.07;;;;;;;23.31;100.00;100370.88;5098308;28;21004;-49
2022/07/21 00:23:12;;;;;;;7.13;6.43;;;;;;;23.36;100.00;100370.50;5098643;28;20444;-49
2022/07/21 00:25:39;;;;;;;6.87;6.47;;;;;;;23.21;100.00;100371.72;5077995;28;20824;-48
2022/07/21 00:28:05;;;;;;;6.33;5.80;;;;;;;23.32;100.00;100361.75;5078186;28;20496;-48
2022/07/21 00:30:33;;;;;;;6.60;6.10;;;;;;;23.41;100.00;100370.97;5078262;28;20845;-48
2022/07/21 00:32:59;;;;;;;5.60;5.10;;;;;;;23.39;100.00;100369.38;5078139;28;20536;-48
2022/07/21 00:35:26;;;;;;;6.87;6.37;;;;;;;23.83;100.00;100373.94;5077816;28;20464;-48
2022/07/21 00:37:53;;;;;;;6.50;5.83;;;;;;;23.40;100.00;100376.53;5077975;28;20982;-50
2022/07/21 00:40:19;;;;;;;10.67;6.70;;;;;;;23.87;100.00;100370.84;5078320;28;20485;-48
2022/07/21 00:42:45;;;;;;;5.30;4.90;;;;;;;23.53;100.00;100374.56;5078078;28;20453;-48
2022/07/21 00:45:12;;;;;;;4.80;4.40;;;;;;;23.24;100.00;100366.91;5078098;28;20826;-49
2022/07/21 00:47:39;;;;;;;3.87;3.67;;;;;;;23.55;100.00;100372.56;5078030;28;20462;-48
2022/07/21 00:50:12;;;;;;;4.20;3.63;;;;;;;23.50;100.00;100382.94;5075686;28;20947;-49
2022/07/21 00:52:39;;;;;;;2.40;2.30;;;;;;;23.26;100.00;100389.34;5075261;28;20438;-48
2022/07/21 00:55:09;;;;;;;3.53;3.33;;;;;;;23.05;100.00;100389.22;5075027;28;20462;-48
2022/07/21 00:57:36;;;;;;;2.83;2.63;;;;;;;22.92;100.00;100402.03;5074642;28;20464;-48
2022/07/21 01:00:13;;;;;;;4.73;3.40;;;;;;;23.10;100.00;100409.69;5074798;28;20947;-48
2022/07/21 01:02:40;;;;;;;2.40;2.20;;;;;;;22.87;100.00;100412.34;5074844;28;20442;-49
2022/07/21 01:05:14;;;;;;;2.47;2.27;;;;;;;22.74;100.00;100414.25;5074707;28;20947;-50
2022/07/21 01:07:47;;;;;;;3.20;2.90;;;;;;;22.67;100.00;100418.41;5074787;28;20448;-48
2022/07/21 01:10:15;;;;;;;2.60;2.40;;;;;;;22.37;100.00;100424.34;5074636;28;20446;-47
2022/07/21 01:12:42;;;;;;;18.03;2.63;;;;;;;22.63;100.00;100425.94;5074703;28;20457;-47
2022/07/21 01:15:10;;;;;;;17.00;3.47;;;;;;;22.49;100.00;100436.97;5088022;28;20952;-47
2022/07/21 01:17:37;;;;;;;3.40;3.10;;;;;;;22.58;100.00;100444.38;5094681;28;20858;-48
2022/07/21 01:20:08;;;;;;;4.33;2.33;;;;;;;22.41;100.00;100444.78;5094674;28;20448;-48
2022/07/21 01:22:36;;;;;;;2.40;2.10;;;;;;;22.36;100.00;100455.13;5094576;28;20445;-48
2022/07/21 01:25:04;;;;;;;5.10;2.40;;;;;;;22.23;100.00;100449.75;5092975;28;20451;-48
2022/07/21 01:27:30;;;;;;;4.13;1.97;;;;;;;22.77;100.00;100449.25;5082922;28;20445;-48
2022/07/21 01:29:58;;;;;;;4.70;2.23;;;;;;;23.25;100.00;100444.59;5093823;28;20449;-47
2022/07/21 01:32:25;;;;;;;3.90;2.80;;;;;;;22.76;100.00;100451.13;5092323;28;20451;-49
2022/07/21 01:34:52;;;;;;;8.80;3.60;;;;;;;22.60;100.00;100463.22;5094273;28;20445;-47
2022/07/21 01:37:23;;;;;;;2.50;2.30;;;;;;;22.42;100.00;100465.47;5094339;28;20456;-47
2022/07/21 01:42:36;;;;;;;6.10;3.10;;;;;;;22.49;100.00;100463.19;5094324;28;20452;-50
2022/07/21 01:45:04;;;;;;;2.50;2.40;;;;;;;22.79;100.00;100468.97;5094131;28;20449;-48
2022/07/21 01:47:32;;;;;;;2.67;2.50;;;;;;;22.91;100.00;100457.22;5094110;28;20451;-47
2022/07/21 01:49:58;;;;;;;2.63;2.40;;;;;;;22.71;100.00;100463.28;5093610;28;20468;-47
2022/07/21 01:52:25;;;;;;;2.33;2.17;;;;;;;22.66;100.00;100471.75;5094070;28;20451;-48
2022/07/21 01:54:51;;;;;;;2.30;2.10;;;;;;;22.38;100.00;100467.56;5093791;28;20933;-47
2022/07/21 01:57:18;;;;;;;6.10;2.80;;;;;;;22.61;100.00;100479.34;5092431;28;20811;-47
2022/07/21 01:59:44;;;;;;;3.40;3.07;;;;;;;22.60;100.00;100479.47;5094322;28;20465;-48
2022/07/21 02:02:11;;;;;;;3.30;2.77;;;;;;;22.96;100.00;100483.97;5092508;28;20500;-47
2022/07/21 02:04:37;;;;;;;1.33;1.23;;;;;;;22.71;100.00;100487.66;5080414;28;20455;-48
2022/07/21 02:07:04;;;;;;;2.93;2.73;;;;;;;23.00;100.00;100475.47;5093450;28;20449;-50
2022/07/21 02:09:30;;;;;;;9.60;2.23;;;;;;;22.73;100.00;100478.44;5093407;28;20548;-49
2022/07/21 02:11:57;;;;;;;2.27;2.13;;;;;;;23.03;100.00;100474.41;5093503;28;20477;-48
2022/07/21 02:14:25;;;;;;;3.53;2.90;;;;;;;23.17;100.00;100478.75;5093922;28;20528;-48
2022/07/21 02:16:51;;;;;;;2.63;2.23;;;;;;;22.88;100.00;100480.97;5093378;28;20460;-48
2022/07/21 02:19:18;;;;;;;2.90;2.73;;;;;;;22.83;100.00;100486.75;5096126;28;20465;-48
2022/07/21 02:21:45;;;;;;;3.23;3.03;;;;;;;23.09;100.00;100489.31;5095839;28;20489;-49
2022/07/21 02:24:11;;;;;;;4.23;3.83;;;;;;;23.10;100.00;100483.78;5093364;28;20824;-48
2022/07/21 02:26:37;;;;;;;4.30;2.90;;;;;;;23.05;100.00;100488.69;5085189;28;20537;-47
2022/07/21 02:29:04;;;;;;;9.57;3.20;;;;;;;23.06;100.00;100493.13;5093123;28;20473;-48
2022/07/21 02:31:31;;;;;;;1.90;1.80;;;;;;;22.94;100.00;100494.94;5090804;28;20480;-48
2022/07/21 02:33:57;;;;;;;2.60;2.40;;;;;;;22.89;100.00;100499.88;5092985;28;20544;-48
2022/07/21 02:36:24;;;;;;;2.57;2.47;;;;;;;22.61;100.00;100492.91;5093181;28;20518;-48
2022/07/21 02:38:50;;;;;;;3.00;2.80;;;;;;;22.77;100.00;100489.94;5092661;28;21007;-48
2022/07/21 02:41:17;;;;;;;3.33;3.13;;;;;;;22.58;100.00;100484.16;5092765;28;20492;-48
2022/07/21 02:43:44;;;;;;;15.43;3.30;;;;;;;22.57;100.00;100491.41;5092866;28;20957;-47
2022/07/21 02:46:10;;;;;;;3.00;2.80;;;;;;;22.41;100.00;100488.13;5093108;28;20445;-48
2022/07/21 02:48:37;;;;;;;3.30;3.10;;;;;;;22.40;100.00;100502.66;5093005;28;20504;-48
2022/07/21 02:51:03;;;;;;;3.27;3.07;;;;;;;22.26;100.00;100503.69;5093299;28;20445;-48
2022/07/21 02:53:33;;;;;;;6.50;2.60;;;;;;;22.18;100.00;100500.66;5093147;28;20445;-48
2022/07/21 02:56:00;;;;;;;6.03;3.83;;;;;;;22.20;100.00;100508.66;5091957;28;20449;-48
2022/07/21 02:58:28;;;;;;;3.03;2.83;;;;;;;22.20;100.00;100505.97;5092690;28;20472;-48
2022/07/21 03:01:05;;;;;;;3.10;2.90;;;;;;;22.32;100.00;100496.94;5092558;28;20488;-48
2022/07/21 03:03:36;;;;;;;2.30;2.20;;;;;;;22.36;100.00;100507.44;5092901;28;20446;-48
2022/07/21 03:06:04;;;;;;;3.70;3.40;;;;;;;22.54;99.67;100502.50;5092547;28;20930;-49
2022/07/21 03:08:33;;;;;;;3.50;3.20;;;;;;;22.46;100.00;100515.72;5092586;28;20506;-48
2022/07/21 03:10:59;;;;;;;6.50;3.53;;;;;;;22.62;98.02;100513.63;5092091;28;20437;-48
2022/07/21 03:13:26;;;;;;;11.93;2.23;;;;;;;22.29;100.00;100518.84;5092178;28;20494;-48
2022/07/21 03:15:53;;;;;;;3.30;3.10;;;;;;;22.52;98.97;100512.59;5092460;28;20445;-48
2022/07/21 03:18:20;;;;;;;3.00;2.37;;;;;;;22.30;99.65;100509.72;5092328;28;20543;-50
2022/07/21 03:20:47;;;;;;;4.27;3.17;;;;;;;22.36;98.68;100512.00;5092398;28;20507;-48
2022/07/21 03:23:13;;;;;;;4.67;2.27;;;;;;;22.05;100.00;100502.50;5092154;28;20444;-49
2022/07/21 03:25:40;;;;;;;3.20;2.90;;;;;;;22.12;100.00;100509.25;5085730;28;20450;-49
2022/07/21 03:28:07;;;;;;;4.10;3.03;;;;;;;21.99;100.00;100513.78;5085844;28;20538;-51
2022/07/21 03:30:34;;;;;;;5.17;2.40;;;;;;;21.83;100.00;100506.78;5092025;28;20965;-49
2022/07/21 03:33:00;;;;;;;8.97;2.43;;;;;;;21.86;100.00;100513.81;5090165;28;20475;-49
2022/07/21 03:35:27;;;;;;;14.97;3.53;;;;;;;21.84;100.00;100508.50;5092305;28;20459;-48
2022/07/21 03:37:56;;;;;;;3.33;3.03;;;;;;;21.80;100.00;100515.13;5092056;28;20997;-49
2022/07/21 03:40:26;;;;;;;4.40;3.30;;;;;;;21.81;100.00;100510.56;5092508;28;20452;-49
2022/07/21 03:42:55;;;;;;;6.07;4.40;;;;;;;21.81;100.00;100508.72;5092190;28;20485;-48
2022/07/21 03:45:22;;;;;;;4.33;3.20;;;;;;;21.94;100.00;100511.44;5092143;28;20820;-48
2022/07/21 03:47:49;;;;;;;6.23;3.40;;;;;;;21.84;100.00;100526.59;5091553;28;21057;-48
2022/07/21 03:50:19;;;;;;;8.73;3.90;;;;;;;21.95;100.00;100523.13;5092476;28;20445;-48
2022/07/21 03:52:45;;;;;;;5.20;3.30;;;;;;;21.95;100.00;100521.28;5091876;28;20938;-50
2022/07/21 03:55:18;;;;;;;7.07;4.40;;;;;;;21.82;100.00;100515.00;5091996;28;20514;-48
2022/07/21 03:57:50;;;;;;;19.53;4.20;;;;;;;21.84;100.00;100515.75;5091230;28;20550;-49
2022/07/21 04:00:21;;;;;;;2.43;1.70;;;;;;;21.76;100.00;100520.84;5091807;28;20956;-49
2022/07/21 04:02:48;;;;;;;5.60;2.60;;;;;;;21.64;100.00;100513.59;5091857;28;20712;-48
2022/07/21 04:05:16;;;;;;;2.57;2.37;;;;;;;21.57;100.00;100513.19;5092072;28;20858;-48
2022/07/21 04:07:44;;;;;;;2.80;2.70;;;;;;;21.71;100.00;100515.78;5092008;28;20449;-49
2022/07/21 04:10:13;;;;;;;3.20;2.50;;;;;;;21.48;100.00;100514.69;5092050;28;20459;-48
2022/07/21 04:12:40;;;;;;;3.50;3.30;;;;;;;21.68;100.00;100525.94;5091944;28;20829;-49
2022/07/21 04:15:09;;;;;;;3.00;2.80;;;;;;;21.46;100.00;100518.47;5091861;28;20797;-49
2022/07/21 04:17:37;;;;;;;2.87;2.67;;;;;;;21.49;100.00;100513.72;5091847;28;20479;-48
2022/07/21 04:20:04;;;;;;;4.60;3.40;;;;;;;21.45;100.00;100516.75;5091765;28;20536;-49
2022/07/21 04:22:31;;;;;;;2.77;2.57;;;;;;;21.38;100.00;100518.13;5091585;28;20501;-49
2022/07/21 04:24:59;;;;;;;11.90;3.27;;;;;;;21.37;100.00;100509.16;5091402;28;20970;-49
2022/07/21 04:27:27;;;;;;;3.60;3.40;;;;;;;21.44;100.00;100510.47;5083480;28;20445;-48
2022/07/21 04:29:54;;;;;;;3.37;3.07;;;;;;;21.46;100.00;100513.94;5095255;28;20452;-48
2022/07/21 04:32:20;;;;;;;4.97;3.10;;;;;;;21.36;100.00;100515.53;5096909;28;20532;-48
2022/07/21 04:34:47;;;;;;;26.73;3.20;;;;;;;21.49;100.00;100515.53;5096382;28;20463;-49
2022/07/21 04:37:13;;;;;;;7.73;3.30;;;;;;;21.49;100.00;100519.13;5095584;28;20449;-48
2022/07/21 04:39:39;;;;;;;3.00;2.80;;;;;;;21.60;100.00;100521.06;5094941;28;20931;-49
2022/07/21 04:42:06;;;;;;;2.50;2.30;;;;;;;21.47;100.00;100528.31;5095075;28;20484;-48
2022/07/21 04:44:33;;;;;;;3.50;3.20;;;;;;;21.57;100.00;100532.97;5095396;28;20444;-49
2022/07/21 04:46:59;;;;;;;2.63;2.47;;;;;;;22.24;97.65;100531.84;5095257;28;20448;-48
2022/07/21 04:49:26;;;;;;;4.70;4.40;;;;;;;22.18;96.79;100535.88;5094992;28;20543;-49
2022/07/21 04:51:52;;;;;;;15.97;3.40;;;;;;;22.53;96.00;100544.13;5095397;28;20445;-49
2022/07/21 04:54:19;;;;;;;3.33;2.07;;;;;;;22.01;97.43;100550.59;5094719;28;20449;-48
2022/07/21 04:56:47;;;;;;;3.60;2.93;;;;;;;21.94;98.45;100541.19;5094004;28;20444;-48
2022/07/21 04:59:13;;;;;;;3.57;3.37;;;;;;;21.71;98.87;100544.66;5095050;28;20471;-50
2022/07/21 05:01:40;;;;;;;2.63;2.43;;;;;;;22.67;95.11;100559.34;5094810;28;21019;-49
2022/07/21 05:04:07;;;;;;;3.90;3.70;;;;;;;22.91;95.85;100557.56;5094445;28;21000;-50
2022/07/21 05:06:34;;;;;;;7.93;4.20;;;;;;;23.43;91.20;100563.50;5094948;28;20457;-49
2022/07/21 05:09:01;;;;;;;4.00;3.80;;;;;;;23.53;91.07;100556.38;5094945;28;20479;-49
2022/07/21 05:11:27;;;;;;;2.63;2.43;;;;;;;24.05;87.81;100561.31;5094940;28;20460;-49
2022/07/21 05:13:54;;;;;;;4.03;3.27;;;;;;;24.30;87.26;100549.34;5094462;28;20456;-49
2022/07/21 05:16:21;;;;;;;3.40;3.10;;;;;;;24.41;86.50;100543.91;5094966;28;20535;-49
2022/07/21 05:18:48;;;;;;;8.80;2.90;;;;;;;24.91;85.09;100544.25;5094274;28;20482;-49
2022/07/21 05:21:15;;;;;;;3.03;2.83;;;;;;;24.90;84.58;100542.50;5094679;28;20522;-49
2022/07/21 05:23:41;;;;;;;3.30;3.03;;;;;;;24.99;85.26;100544.47;5094381;28;21002;-49
2022/07/21 05:26:08;;;;;;;5.30;4.23;;;;;;;24.97;86.87;100551.91;5082360;28;20450;-48
2022/07/21 05:28:35;;;;;;;3.63;3.33;;;;;;;25.47;82.49;100549.44;5091962;28;20475;-49
2022/07/21 05:31:01;;;;;;;2.93;2.73;;;;;;;25.32;83.55;100548.03;5094210;28;20532;-49
2022/07/21 05:33:28;;;;;;;5.70;2.97;;;;;;;25.53;82.80;100537.16;5092304;28;21011;-48
2022/07/21 05:35:54;;;;;;;2.30;2.13;;;;;;;25.65;81.95;100539.69;5094235;28;20548;-48
2022/07/21 05:38:21;;;;;;;4.80;4.40;;;;;;;25.38;84.08;100539.38;5093871;28;20916;-49
2022/07/21 05:40:53;;;;;;;3.30;3.10;;;;;;;25.81;82.05;100541.94;5094384;28;20445;-48
2022/07/21 05:43:20;;;;;;;2.53;2.43;;;;;;;25.89;81.02;100538.53;5094002;28;20489;-47
2022/07/21 05:45:46;;;;;;;2.60;2.40;;;;;;;26.50;79.70;100549.41;5094206;28;20530;-48
2022/07/21 05:48:14;;;;;;;6.70;3.97;;;;;;;26.33;79.27;100550.06;5093920;28;20472;-48
2022/07/21 05:50:40;;;;;;;2.93;2.73;;;;;;;26.67;78.64;100551.47;5094204;28;20445;-47
2022/07/21 05:53:07;;;;;;;9.43;2.63;;;;;;;26.04;80.92;100556.28;5094067;28;20480;-49
2022/07/21 05:55:33;;;;;;;3.80;3.60;;;;;;;25.68;82.12;100560.34;5093834;28;20444;-49
2022/07/21 05:58:00;;;;;;;1.53;1.43;;;;;;;25.36;83.89;100566.72;5093781;28;20469;-48
2022/07/21 06:00:34;;;;;;;2.47;2.27;;;;;;;24.78;84.55;100558.00;5094012;28;20887;-48
2022/07/21 06:03:00;;;;;;;3.30;3.00;;;;;;;25.03;84.18;100559.56;5093808;28;20496;-48
2022/07/21 06:05:26;;;;;;;3.23;2.40;;;;;;;24.85;83.45;100555.66;5093718;28;20455;-49
2022/07/21 06:07:53;;;;;;;3.60;3.40;;;;;;;24.73;85.20;100567.53;5093770;28;20495;-48
2022/07/21 06:10:19;;;;;;;3.27;2.67;;;;;;;24.18;86.54;100570.19;5093365;28;20814;-48
2022/07/21 06:12:49;;;;;;;4.50;3.40;;;;;;;24.06;88.17;100570.31;5093334;28;20441;-48
2022/07/21 06:15:15;;;;;;;3.23;3.00;;;;;;;24.19;85.32;100571.06;5093431;28;20453;-48
2022/07/21 06:17:45;;;;;;;8.30;3.90;;;;;;;24.23;86.48;100570.66;5093587;28;20484;-48
2022/07/21 06:20:12;;;;;;;3.40;2.13;;;;;;;24.97;84.75;100576.38;5093288;28;20818;-48
2022/07/21 06:22:39;;;;;;;3.20;3.00;;;;;;;25.33;81.47;100576.97;5093658;28;20853;-49
2022/07/21 06:25:06;;;;;;;2.63;2.47;;;;;;;25.16;82.43;100573.00;5091411;28;20444;-49
2022/07/21 06:27:32;;;;;;;3.10;2.90;;;;;;;25.42;80.69;100575.34;5082069;28;20456;-49
2022/07/21 06:29:59;;;;;;;3.17;2.50;;;;;;;25.73;79.24;100574.44;5092953;28;20459;-48
2022/07/21 06:32:25;;;;;;;2.03;1.93;;;;;;;26.37;78.12;100574.22;5091663;28;20466;-50
2022/07/21 06:34:52;;;;;;;14.90;3.00;;;;;;;25.71;79.71;100578.28;5093196;28;21033;-48
2022/07/21 06:37:18;;;;;;;2.87;2.37;;;;;;;25.80;79.45;100591.13;5093137;28;20457;-48
2022/07/21 06:39:45;;;;;;;3.17;2.97;;;;;;;26.25;77.38;100592.50;5092742;28;21032;-50
2022/07/21 06:42:12;;;;;;;2.83;2.50;;;;;;;25.94;78.38;100593.50;5093113;28;21005;-49
2022/07/21 06:44:38;;;;;;;2.90;2.70;;;;;;;25.82;79.63;100594.56;5094982;28;20515;-48
2022/07/21 06:47:05;;;;;;;5.83;3.63;;;;;;;26.37;77.77;100596.03;5092891;28;20972;-49
2022/07/21 06:49:32;;;;;;;2.20;2.00;;;;;;;26.40;77.20;100592.16;5092561;28;20475;-49
2022/07/21 06:51:58;;;;;;;3.00;2.80;;;;;;;26.34;76.84;100603.59;5093061;28;20447;-49
2022/07/21 06:54:25;;;;;;;3.10;2.90;;;;;;;26.08;78.19;100595.00;5092898;28;20483;-49
2022/07/21 06:56:51;;;;;;;2.83;2.63;;;;;;;26.17;78.90;100595.03;5091512;28;20453;-49
2022/07/21 06:59:18;;;;;;;4.50;3.43;;;;;;;25.61;79.47;100592.66;5092839;28;20465;-49
2022/07/21 07:01:45;;;;;;;2.63;2.53;;;;;;;25.72;80.47;100591.78;5092936;28;20489;-49
2022/07/21 07:04:11;;;;;;;2.83;2.47;;;;;;;25.56;80.68;100596.78;5092838;28;20472;-51
2022/07/21 07:06:39;;;;;;;2.50;2.30;;;;;;;25.56;79.54;100594.94;5092801;28;20449;-48
2022/07/21 07:09:06;;;;;;;3.60;2.70;;;;;;;26.11;79.00;100597.44;5092463;28;20473;-49
2022/07/21 07:11:34;;;;;;;5.20;2.90;;;;;;;26.52;76.77;100601.94;5092838;28;20444;-49
2022/07/21 07:14:00;;;;;;;4.10;3.70;;;;;;;26.32;77.17;100597.41;5092222;28;20480;-49
2022/07/21 07:16:43;;;;;;;7.50;4.07;;;;;;;25.98;77.20;100605.84;5092648;28;20449;-48
2022/07/21 07:19:09;;;;;;;3.57;3.27;;;;;;;25.76;78.09;100605.97;5092410;28;20465;-48
2022/07/21 07:21:36;;;;;;;4.03;2.97;;;;;;;26.16;76.85;100601.47;5092033;28;20934;-48
2022/07/21 07:24:03;;;;;;;2.57;2.47;;;;;;;26.49;76.44;100608.56;5092238;28;20442;-48
2022/07/21 07:26:29;;;;;;;2.10;2.00;;;;;;;26.37;75.68;100615.09;5078998;28;20819;-52
2022/07/21 07:28:56;;;;;;;1.70;1.60;;;;;;;26.23;76.13;100618.16;5079159;28;20468;-48
2022/07/21 07:31:23;;;;;;;2.83;2.63;;;;;;;25.72;78.19;100616.28;5089525;28;20506;-48
2022/07/21 07:33:49;;;;;;;3.23;2.93;;;;;;;25.39;79.86;100609.13;5092304;28;20452;-48
2022/07/21 07:36:16;;;;;;;4.13;2.73;;;;;;;25.37;80.18;100619.31;5092400;28;20451;-47
2022/07/21 07:38:43;;;;;;;2.60;2.40;;;;;;;25.52;79.61;100617.13;5091996;28;20475;-49
2022/07/21 07:41:10;;;;;;;2.67;2.33;;;;;;;25.33;79.45;100615.09;5092383;28;20449;-48
2022/07/21 07:43:36;;;;;;;4.40;2.87;;;;;;;25.55;78.14;100622.31;5092155;28;21005;-48
2022/07/21 07:46:04;;;;;;;4.73;3.10;;;;;;;25.40;78.58;100621.75;5092048;28;20456;-48
2022/07/21 07:48:31;;;;;;;2.30;2.10;;;;;;;25.81;77.49;100620.09;5092234;28;20465;-49
2022/07/21 07:50:58;;;;;;;10.00;2.93;;;;;;;25.56;78.79;100624.88;5092232;28;20500;-48
2022/07/21 07:53:24;;;;;;;2.83;2.63;;;;;;;25.47;78.93;100616.63;5092151;28;20441;-49
2022/07/21 07:55:51;;;;;;;2.53;2.30;;;;;;;25.87;77.58;100617.66;5090559;28;20448;-48
2022/07/21 07:58:17;;;;;;;2.50;2.30;;;;;;;25.60;78.69;100609.13;5092235;28;20475;-48
2022/07/21 08:00:44;;;;;;;4.67;3.20;;;;;;;25.71;77.90;100602.81;5095946;28;20445;-50
2022/07/21 08:03:30;;;;;;;3.03;1.93;;;;;;;25.73;77.63;100603.53;5095956;28;20480;-49
2022/07/21 08:06:03;;;;;;;2.13;2.03;;;;;;;25.39;77.96;100603.69;5096069;28;20456;-48
2022/07/21 08:08:30;;;;;;;2.07;1.97;;;;;;;26.01;76.13;100601.97;5095959;28;20471;-49
2022/07/21 08:10:57;;;;;;;1.40;1.30;;;;;;;26.14;76.24;100597.16;5095714;28;20459;-48
2022/07/21 08:13:25;;;;;;;2.40;2.17;;;;;;;26.30;73.52;100602.97;5095905;28;20440;-48
2022/07/21 08:15:52;;;;;;;1.40;1.30;;;;;;;26.54;73.88;100594.50;5095254;28;20445;-50
2022/07/21 08:18:19;;;;;;;2.00;1.90;;;;;;;26.54;72.62;100597.22;5095910;28;20495;-48
2022/07/21 08:20:47;;;;;;;4.20;2.80;;;;;;;26.41;73.02;100597.47;5095552;28;20964;-49
2022/07/21 08:23:14;;;;;;;4.67;2.93;;;;;;;27.40;70.62;100587.44;5095479;28;20461;-49
2022/07/21 08:25:43;;;;;;;1.90;1.80;;;;;;;27.83;68.89;100589.72;5088228;28;20453;-48
2022/07/21 08:28:10;;;;;;;1.83;1.57;;;;;;;27.64;69.88;100595.22;5089426;28;20468;-49
2022/07/21 08:30:37;;;;;;;5.23;2.10;;;;;;;27.62;69.70;100592.59;5095598;28;20456;-48
2022/07/21 08:33:04;;;;;;;1.80;1.70;;;;;;;27.87;65.66;100585.69;5093717;28;20463;-48
2022/07/21 08:35:32;;;;;;;5.20;2.00;;;;;;;27.83;65.43;100588.88;5095367;28;20908;-48
2022/07/21 08:38:01;;;;;;;4.50;3.03;;;;;;;27.65;66.90;100584.13;5095374;28;20487;-50
2022/07/21 08:40:34;;;;;;;2.57;1.60;;;;;;;27.19;66.36;100590.34;5095344;28;20452;-48
2022/07/21 08:43:02;;;;;;;3.20;2.90;;;;;;;27.09;66.34;100589.47;5094814;28;20488;-48
2022/07/21 08:45:30;;;;;;;2.10;2.00;;;;;;;26.94;66.98;100591.72;5095516;28;20449;-50
2022/07/21 08:47:58;;;;;;;1.70;1.60;;;;;;;27.61;65.09;100582.69;5095135;28;20575;-49
2022/07/21 08:50:27;;;;;;;1.73;1.63;;;;;;;27.61;64.35;100590.03;5096089;28;20445;-50
2022/07/21 08:52:54;;;;;;;4.60;1.93;;;;;;;27.53;64.25;100590.72;5095185;28;20981;-52
2022/07/21 08:55:34;;;;;;;2.00;1.73;;;;;;;27.32;66.41;100584.59;5095396;28;20857;-51
2022/07/21 08:58:03;;;;;;;1.30;1.20;;;;;;;27.56;64.84;100586.88;5094879;28;20492;-52
2022/07/21 09:00:34;;;;;;;1.53;1.43;;;;;;;27.44;66.26;100584.28;5095222;28;20445;-53
2022/07/21 09:03:37;;;;;;;2.83;1.70;;;;;;;27.91;63.02;100592.56;5094671;28;20573;-53
2022/07/21 09:06:07;;;;;;;9.13;1.73;;;;;;;27.76;63.24;100577.66;5032210;28;20459;-53
2022/07/21 09:08:37;;;;;;;6.43;3.00;;;;;;;28.10;62.26;100579.84;5080437;28;20476;-51
2022/07/21 09:11:27;;;;;;;1.70;1.60;;;;;;;27.76;62.30;100566.72;5094126;28;20453;-53
2022/07/21 09:14:28;;;;;;;1.63;1.53;;;;;;;27.92;62.17;100571.56;5087123;28;20862;-53
2022/07/21 09:16:57;;;;;;;5.63;2.30;;;;;;;28.02;61.59;100575.13;5053943;28;20476;-53
2022/07/21 09:19:35;;;;;;;2.10;2.00;;;;;;;28.78;60.06;100580.38;5094870;28;20494;-53
2022/07/21 09:22:06;;;;;;;5.43;1.57;;;;;;;28.63;61.37;100578.16;5094523;28;20535;-53
2022/07/21 09:24:37;;;;;;;2.23;1.50;;;;;;;28.27;60.03;100573.63;5094144;28;20416;-52
2022/07/21 09:27:17;;;;;;;1.27;1.17;;;;;;;28.51;59.31;100559.38;5081112;28;20437;-53
2022/07/21 09:29:47;;;;;;;1.70;1.60;;;;;;;28.26;59.74;100569.16;5093874;28;20461;-53
2022/07/21 09:32:16;;;;;;;1.63;1.53;;;;;;;28.47;59.18;100571.66;5092439;28;20927;-53
2022/07/21 09:34:44;;;;;;;1.97;1.87;;;;;;;28.04;58.98;100564.91;5093821;28;20452;-51
2022/07/21 09:37:11;;;;;;;1.50;1.40;;;;;;;28.54;58.32;100578.25;5094098;28;20445;-53
2022/07/21 09:39:50;;;;;;;1.10;1.00;;;;;;;27.89;59.39;100580.06;5093740;28;20473;-53
2022/07/21 09:42:16;;;;;;;2.30;1.33;;;;;;;28.07;58.80;100575.53;5094241;28;20977;-53
2022/07/21 09:44:45;;;;;;;3.70;1.33;;;;;;;28.23;58.99;100575.75;5094142;28;20452;-53
2022/07/21 09:47:13;;;;;;;1.63;1.53;;;;;;;28.04;59.02;100582.16;5094201;28;20449;-52
2022/07/21 09:49:41;;;;;;;4.10;1.50;;;;;;;27.94;58.96;100584.06;5093258;28;21005;-53
2022/07/21 09:52:29;;;;;;;4.43;1.50;;;;;;;28.08;58.10;100587.34;5093958;28;20423;-53
2022/07/21 09:55:04;;;;;;;1.20;1.10;;;;;;;27.78;58.63;100580.22;5093753;28;20464;-53
2022/07/21 09:57:31;;;;;;;2.20;1.30;;;;;;;27.52;60.52;100585.41;5093212;28;20437;-53
2022/07/21 10:00:08;;;;;;;0.93;0.80;;;;;;;27.54;60.13;100583.41;5093722;28;20498;-53
2022/07/21 10:02:45;;;;;;;1.27;1.17;;;;;;;27.67;59.22;100575.78;5093383;28;21008;-53
2022/07/21 10:05:14;;;;;;;1.10;1.00;;;;;;;27.49;60.21;100572.91;5093788;28;20448;-52
2022/07/21 10:07:47;;;;;;;2.80;1.47;;;;;;;27.38;61.70;100578.53;5093601;28;20451;-53
2022/07/21 10:10:15;;;;;;;1.77;1.67;;;;;;;27.40;61.30;100574.66;5093403;28;20477;-54
2022/07/21 10:12:47;;;;;;;2.93;1.83;;;;;;;27.26;61.46;100580.53;5093763;28;20433;-54
2022/07/21 10:15:15;;;;;;;1.53;1.27;;;;;;;27.20;61.00;100575.69;5093350;28;20445;-53
2022/07/21 10:17:44;;;;;;;1.73;1.13;;;;;;;27.06;61.46;100573.38;5093413;28;20445;-53
2022/07/21 10:20:20;;;;;;;1.40;1.30;;;;;;;27.27;56.84;100571.34;5093255;28;20441;-52
2022/07/21 10:23:16;;;;;;;1.43;1.33;;;;;;;26.98;57.49;100574.03;5092208;28;20480;-53
2022/07/21 10:25:47;;;;;;;1.97;1.87;;;;;;;27.35;58.63;100573.38;5079003;28;20469;-53
2022/07/21 10:28:14;;;;;;;2.30;2.20;;;;;;;27.91;57.39;100576.16;5087542;28;20469;-53
2022/07/21 10:30:46;;;;;;;2.13;1.57;;;;;;;27.65;58.99;100570.47;5093051;28;20464;-53
2022/07/21 10:33:16;;;;;;;1.77;1.23;;;;;;;27.90;59.69;100576.31;5090915;28;20539;-52
2022/07/21 10:35:44;;;;;;;4.30;2.30;;;;;;;27.73;58.88;100575.22;5093079;28;20961;-52
2022/07/21 10:38:30;;;;;;;1.50;1.40;;;;;;;27.85;56.35;100571.31;5093059;28;20465;-53
2022/07/21 10:40:59;;;;;;;1.50;1.40;;;;;;;28.03;51.63;100566.78;5093043;28;20441;-53
2022/07/21 10:43:28;;;;;;;2.20;2.00;;;;;;;28.40;51.07;100565.09;5092853;28;21024;-53
2022/07/21 10:45:55;;;;;;;2.40;2.30;;;;;;;28.94;49.81;100568.81;5092958;28;20892;-53
2022/07/21 10:48:37;;;;;;;5.63;2.43;;;;;;;28.75;49.73;100548.72;5093128;28;20469;-54
2022/07/21 10:51:08;;;;;;;2.30;1.47;;;;;;;29.24;50.12;100553.88;5092849;28;20445;-54
2022/07/21 10:53:35;;;;;;;16.57;2.50;;;;;;;29.69;49.20;100549.09;5093198;28;20429;-54
2022/07/21 10:56:02;;;;;;;2.20;1.57;;;;;;;29.94;46.31;100552.88;5091074;28;20447;-54
2022/07/21 10:58:37;;;;;;;3.00;2.77;;;;;;;29.16;48.22;100543.69;5092899;28;20464;-54
2022/07/21 11:01:15;;;;;;;13.93;2.20;;;;;;;29.55;47.97;100548.84;5092837;28;20441;-54
2022/07/21 11:04:07;;;;;;;3.13;2.03;;;;;;;29.55;47.46;100546.94;5092501;28;20496;-54
2022/07/21 11:06:34;;;;;;;3.20;2.70;;;;;;;29.48;47.05;100526.72;5092914;28;20448;-54
2022/07/21 11:09:04;;;;;;;3.07;2.73;;;;;;;30.16;46.04;100537.78;5092157;28;20999;-53
2022/07/21 11:11:33;;;;;;;2.10;2.00;;;;;;;29.87;46.72;100554.53;5092566;28;20813;-54
2022/07/21 11:14:11;;;;;;;2.57;2.37;;;;;;;29.64;45.86;100550.63;5092526;28;20445;-54
2022/07/21 11:16:49;;;;;;;3.00;2.10;;;;;;;29.37;45.16;100544.22;5092293;28;20540;-54
2022/07/21 11:19:34;;;;;;;2.60;2.40;;;;;;;29.78;44.59;100536.31;5086152;28;20472;-52
2022/07/21 11:22:14;;;;;;;2.50;2.40;;;;;;;29.50;45.05;100532.88;5074819;28;20429;-52
2022/07/21 11:24:43;;;;;;;2.30;1.77;;;;;;;29.92;44.67;100527.50;5073468;28;20482;-53
2022/07/21 11:27:13;;;;;;;4.53;2.57;;;;;;;30.20;44.86;100539.16;5083621;28;20449;-53
2022/07/21 11:29:42;;;;;;;3.87;3.07;;;;;;;30.26;44.81;100519.28;5084058;28;20479;-53
2022/07/21 11:32:09;;;;;;;2.90;2.80;;;;;;;30.56;44.70;100525.22;5083093;28;20461;-54